createdAt,value
2017-06-03T00:02:22.310Z,4.55
2017-06-03T00:04:56.958Z,4.65
2017-06-03T00:07:31.509Z,5.45
2017-06-03T00:10:06.193Z,6.00
2017-06-03T00:12:40.641Z,6.12
2017-06-03T00:15:15.216Z,5.60
2017-06-03T00:17:49.812Z,4.40
2017-06-03T00:20:25.162Z,4.47
2017-06-03T00:22:59.783Z,4.65
2017-06-03T00:25:34.426Z,8.85
2017-06-03T00:28:09.033Z,7.60
2017-06-03T00:30:43.685Z,7.45
2017-06-03T00:33:18.866Z,9.13
2017-06-03T00:35:53.442Z,5.47
2017-06-03T00:38:28.049Z,6.12
2017-06-03T00:41:02.657Z,5.95
2017-06-03T00:43:41.809Z,4.87
2017-06-03T00:46:25.296Z,7.70
2017-06-03T00:49:05.878Z,4.97
2017-06-03T00:51:46.721Z,5.47
2017-06-03T00:54:27.279Z,6.65
2017-06-03T00:57:08.889Z,8.38
2017-06-03T00:59:49.225Z,6.22
2017-06-03T01:02:30.116Z,5.10
2017-06-03T01:05:11.582Z,4.15
2017-06-03T01:07:54.307Z,7.18
2017-06-03T01:10:36.209Z,6.68
2017-06-03T01:13:18.811Z,4.47
2017-06-03T01:15:59.787Z,7.82
2017-06-03T01:18:40.518Z,4.97
2017-06-03T01:21:20.980Z,4.20
2017-06-03T01:24:00.960Z,4.60
2017-06-03T01:26:43.955Z,4.37
2017-06-03T01:29:24.764Z,4.85
2017-06-03T01:32:05.007Z,4.22
2017-06-03T01:34:45.778Z,5.53
2017-06-03T01:37:27.235Z,5.50
2017-06-03T01:40:07.248Z,4.87
2017-06-03T01:42:48.609Z,4.22
2017-06-03T01:45:27.078Z,3.97
2017-06-03T01:48:05.952Z,4.60
2017-06-03T01:50:45.644Z,7.60
2017-06-03T01:53:28.842Z,5.37
2017-06-03T01:56:08.687Z,4.37
2017-06-03T01:58:49.612Z,6.97
2017-06-03T02:01:30.530Z,6.15
2017-06-03T02:04:10.691Z,10.13
2017-06-03T02:06:46.362Z,6.57
2017-06-03T02:09:21.979Z,7.32
2017-06-03T02:11:57.269Z,4.90
2017-06-03T02:14:31.978Z,5.12
2017-06-03T02:17:06.670Z,4.43
2017-06-03T02:19:41.510Z,6.43
2017-06-03T02:22:16.099Z,3.78
2017-06-03T02:24:50.901Z,5.35
2017-06-03T02:27:25.335Z,5.28
2017-06-03T02:30:00.726Z,4.57
2017-06-03T02:32:35.167Z,3.83
2017-06-03T02:35:09.755Z,5.70
2017-06-03T02:37:44.353Z,6.15
2017-06-03T02:40:19.010Z,4.72
2017-06-03T02:42:53.567Z,6.35
2017-06-03T02:45:28.232Z,4.05
2017-06-03T02:48:02.840Z,5.68
2017-06-03T02:50:37.438Z,5.50
2017-06-03T02:53:12.053Z,5.15
2017-06-03T02:55:46.784Z,5.22
2017-06-03T02:58:21.236Z,5.62
2017-06-03T03:00:55.900Z,4.25
2017-06-03T03:03:30.387Z,4.32
2017-06-03T03:06:05.744Z,4.75
2017-06-03T03:08:40.326Z,3.37
2017-06-03T03:11:14.890Z,5.28
2017-06-03T03:13:49.491Z,12.02
2017-06-03T03:16:24.881Z,5.60
2017-06-03T03:18:59.476Z,4.15
2017-06-03T03:21:35.911Z,4.53
2017-06-03T03:24:12.195Z,4.25
2017-06-03T03:26:47.618Z,7.90
2017-06-03T03:29:22.946Z,4.15
2017-06-03T03:31:58.479Z,3.78
2017-06-03T03:34:34.661Z,4.62
2017-06-03T03:37:10.407Z,6.03
2017-06-03T03:39:45.764Z,3.28
2017-06-03T03:42:22.619Z,4.40
2017-06-03T03:44:58.170Z,4.30
2017-06-03T03:47:33.922Z,7.93
2017-06-03T03:50:10.215Z,3.40
2017-06-03T03:52:45.957Z,3.65
2017-06-03T03:55:21.799Z,4.00
2017-06-03T03:57:57.514Z,3.00
2017-06-03T04:00:33.068Z,4.32
2017-06-03T04:03:08.893Z,4.45
2017-06-03T04:05:44.470Z,3.85
2017-06-03T04:08:20.065Z,2.97
2017-06-03T04:10:55.544Z,3.90
2017-06-03T04:13:31.550Z,3.70
2017-06-03T04:16:07.053Z,3.25
2017-06-03T04:18:42.707Z,2.90
2017-06-03T04:21:18.265Z,2.78
2017-06-03T04:23:53.734Z,4.22
2017-06-03T04:26:29.122Z,3.50
2017-06-03T04:29:05.581Z,12.90
2017-06-03T04:31:40.922Z,3.67
2017-06-03T04:34:16.797Z,3.37
2017-06-03T04:36:52.212Z,3.00
2017-06-03T04:39:27.854Z,3.10
2017-06-03T04:42:03.317Z,3.03
2017-06-03T04:44:40.510Z,3.00
2017-06-03T04:47:15.904Z,2.53
2017-06-03T04:49:52.045Z,3.35
2017-06-03T04:52:28.204Z,4.28
2017-06-03T04:55:03.858Z,4.15
2017-06-03T04:57:40.387Z,2.20
2017-06-03T05:00:16.418Z,2.97
2017-06-03T05:02:51.058Z,1.85
2017-06-03T05:05:25.907Z,2.12
2017-06-03T05:08:00.610Z,4.53
2017-06-03T05:10:35.274Z,2.85
2017-06-03T05:13:09.931Z,2.85
2017-06-03T05:15:45.518Z,2.65
2017-06-03T05:18:21.185Z,2.20
2017-06-03T05:20:56.937Z,4.12
2017-06-03T05:23:32.255Z,6.50
2017-06-03T05:26:07.835Z,3.05
2017-06-03T05:28:43.235Z,1.85
2017-06-03T05:31:19.593Z,3.10
2017-06-03T05:33:55.124Z,2.65
2017-06-03T05:36:31.511Z,3.15
2017-06-03T05:39:07.169Z,3.47
2017-06-03T05:41:43.851Z,3.08
2017-06-03T05:44:20.106Z,2.12
2017-06-03T05:46:56.976Z,3.60
2017-06-03T05:49:32.543Z,4.62
2017-06-03T05:52:08.044Z,1.83
2017-06-03T05:54:43.678Z,2.25
2017-06-03T05:57:19.221Z,3.22
2017-06-03T05:59:54.795Z,3.00
2017-06-03T06:02:30.525Z,3.12
2017-06-03T06:05:06.548Z,3.00
2017-06-03T06:07:42.161Z,4.53
2017-06-03T06:10:17.555Z,5.37
2017-06-03T06:12:52.285Z,3.08
2017-06-03T06:15:26.701Z,2.20
2017-06-03T06:18:01.386Z,4.60
2017-06-03T06:20:36.004Z,2.42
2017-06-03T06:23:10.535Z,4.80
2017-06-03T06:25:44.992Z,2.87
2017-06-03T06:28:19.565Z,2.40
2017-06-03T06:30:54.046Z,4.35
2017-06-03T06:33:28.725Z,4.00
2017-06-03T06:36:03.168Z,2.30
2017-06-03T06:38:38.647Z,3.67
2017-06-03T06:41:13.238Z,2.05
2017-06-03T06:43:48.669Z,2.22
2017-06-03T06:46:27.642Z,4.50
2017-06-03T06:49:08.683Z,3.75
2017-06-03T06:51:49.069Z,3.40
2017-06-03T06:54:29.303Z,2.97
2017-06-03T06:57:09.851Z,10.88
2017-06-03T06:59:50.307Z,4.78
2017-06-03T07:02:29.396Z,10.43
2017-06-03T07:05:04.935Z,6.22
2017-06-03T07:07:39.965Z,4.47
2017-06-03T07:10:14.726Z,4.43
2017-06-03T07:12:49.207Z,3.97
2017-06-03T07:15:23.758Z,3.65
2017-06-03T07:17:58.266Z,5.80
2017-06-03T07:20:33.536Z,5.65
2017-06-03T07:23:08.842Z,8.45
2017-06-03T07:25:43.452Z,4.30
2017-06-03T07:28:17.852Z,5.45
2017-06-03T07:30:52.734Z,2.62
2017-06-03T07:33:27.282Z,4.05
2017-06-03T07:36:01.988Z,4.95
2017-06-03T07:38:36.519Z,4.43
2017-06-03T07:41:11.263Z,3.22
2017-06-03T07:43:45.745Z,4.78
2017-06-03T07:46:20.557Z,6.75
2017-06-03T07:48:54.983Z,2.60
2017-06-03T07:51:29.669Z,6.62
2017-06-03T07:54:04.200Z,2.85
2017-06-03T07:56:38.672Z,3.08
2017-06-03T07:59:13.125Z,3.15
2017-06-03T08:01:47.746Z,2.95
2017-06-03T08:04:22.441Z,2.58
2017-06-03T08:06:57.963Z,3.40
2017-06-03T08:09:32.561Z,6.97
2017-06-03T08:12:07.960Z,2.87
2017-06-03T08:14:42.545Z,3.25
2017-06-03T08:17:17.254Z,3.45
2017-06-03T08:19:52.502Z,2.92
2017-06-03T08:22:27.133Z,6.05
2017-06-03T08:25:01.733Z,4.78
2017-06-03T08:27:36.341Z,3.08
2017-06-03T08:30:10.943Z,4.10
2017-06-03T08:32:45.422Z,6.30
2017-06-03T08:35:20.005Z,4.15
2017-06-03T08:37:55.469Z,3.03
2017-06-03T08:40:30.921Z,3.45
2017-06-03T08:43:05.593Z,4.87
2017-06-03T08:45:40.766Z,6.60
2017-06-03T08:48:20.616Z,3.25
2017-06-03T08:51:00.794Z,6.47
2017-06-03T08:53:41.597Z,5.82
2017-06-03T08:56:22.183Z,4.47
2017-06-03T08:59:02.977Z,5.62
2017-06-03T09:01:42.672Z,6.35
2017-06-03T09:04:24.803Z,4.15
2017-06-03T09:07:05.246Z,4.50
2017-06-03T09:09:44.962Z,6.40
2017-06-03T09:12:24.573Z,3.10
2017-06-03T09:15:04.148Z,11.35
2017-06-03T09:17:45.060Z,5.37
2017-06-03T09:20:25.473Z,5.65
2017-06-03T09:23:05.772Z,11.27
2017-06-03T09:25:44.526Z,5.20
2017-06-03T09:28:25.345Z,4.85
2017-06-03T09:31:10.368Z,4.12
2017-06-03T09:33:56.419Z,4.28
2017-06-03T09:36:40.445Z,5.15
2017-06-03T09:39:26.045Z,7.12
2017-06-03T09:42:10.200Z,3.83
2017-06-03T09:44:55.890Z,4.65
2017-06-03T09:47:39.358Z,4.60
2017-06-03T09:50:23.251Z,4.80
2017-06-03T09:53:04.123Z,3.75
2017-06-03T09:55:40.642Z,3.72
2017-06-03T09:58:15.129Z,7.28
2017-06-03T10:00:49.759Z,5.68
2017-06-03T10:03:24.257Z,4.75
2017-06-03T10:05:59.241Z,7.00
2017-06-03T10:08:33.709Z,4.18
2017-06-03T10:11:08.425Z,4.97
2017-06-03T10:13:42.878Z,4.75
2017-06-03T10:16:18.291Z,4.65
2017-06-03T10:18:52.874Z,5.10
2017-06-03T10:21:27.693Z,3.85
2017-06-03T10:24:02.268Z,4.43
2017-06-03T10:26:36.951Z,3.70
2017-06-03T10:29:11.559Z,4.30
2017-06-03T10:31:46.219Z,4.03
2017-06-03T10:34:20.713Z,7.35
2017-06-03T10:36:55.366Z,4.80
2017-06-03T10:39:29.992Z,3.83
2017-06-03T10:42:04.754Z,7.15
2017-06-03T10:44:39.369Z,5.30
2017-06-03T10:47:13.974Z,3.90
2017-06-03T10:49:48.412Z,5.43
2017-06-03T10:52:23.056Z,6.50
2017-06-03T10:54:57.551Z,4.50
2017-06-03T10:57:32.055Z,4.72
2017-06-03T11:00:06.681Z,4.65
2017-06-03T11:02:41.192Z,5.30
2017-06-03T11:05:15.650Z,7.78
2017-06-03T11:07:50.269Z,4.60
2017-06-03T11:10:24.747Z,4.62
2017-06-03T11:12:59.413Z,5.12
2017-06-03T11:15:33.847Z,7.32
2017-06-03T11:18:08.445Z,4.50
2017-06-03T11:20:42.891Z,5.97
2017-06-03T11:23:18.338Z,5.00
2017-06-03T11:25:52.835Z,4.85
2017-06-03T11:28:27.350Z,4.62
2017-06-03T11:31:01.803Z,5.97
2017-06-03T11:33:36.661Z,6.65
2017-06-03T11:36:11.358Z,4.70
2017-06-03T11:38:45.950Z,6.00
2017-06-03T11:41:20.572Z,5.57
2017-06-03T11:43:55.319Z,5.47
2017-06-03T11:46:29.806Z,9.10
2017-06-03T11:49:04.606Z,5.50
2017-06-03T11:51:39.048Z,5.35
2017-06-03T11:54:13.690Z,4.68
2017-06-03T11:56:48.354Z,5.05
2017-06-03T11:59:23.964Z,4.80
2017-06-03T12:01:58.572Z,5.97
2017-06-03T12:04:33.214Z,5.07
2017-06-03T12:07:07.785Z,6.93
2017-06-03T12:09:42.286Z,4.90
2017-06-03T12:12:16.932Z,5.55
2017-06-03T12:14:51.870Z,5.10
2017-06-03T12:17:26.462Z,5.72
2017-06-03T12:20:01.135Z,10.20
2017-06-03T12:22:35.729Z,5.87
2017-06-03T12:25:10.932Z,4.90
2017-06-03T12:27:45.509Z,6.35
2017-06-03T12:30:20.077Z,5.65
2017-06-03T12:32:54.697Z,6.35
2017-06-03T12:35:29.218Z,7.28
2017-06-03T12:38:03.670Z,4.60
2017-06-03T12:40:38.449Z,5.40
2017-06-03T12:43:12.898Z,6.00
2017-06-03T12:45:47.773Z,6.25
2017-06-03T12:48:22.170Z,7.18
2017-06-03T12:50:56.890Z,5.50
2017-06-03T12:53:31.621Z,6.15
2017-06-03T12:56:06.199Z,6.12
2017-06-03T12:58:40.805Z,7.97
2017-06-03T13:01:15.450Z,6.57
2017-06-03T13:03:49.946Z,5.00
2017-06-03T13:06:24.577Z,5.22
2017-06-03T13:08:59.215Z,6.30
2017-06-03T13:11:33.724Z,6.40
2017-06-03T13:14:08.219Z,6.07
2017-06-03T13:16:42.964Z,5.30
2017-06-03T13:19:17.444Z,6.37
2017-06-03T13:21:52.202Z,7.47
2017-06-03T13:24:26.741Z,8.50
2017-06-03T13:27:01.455Z,5.30
2017-06-03T13:29:37.674Z,10.80
2017-06-03T13:32:12.303Z,5.77
2017-06-03T13:34:46.831Z,14.07
2017-06-03T13:37:21.962Z,9.77
2017-06-03T13:39:56.493Z,27.63
2017-06-03T13:42:31.299Z,37.33
2017-06-03T13:45:06.031Z,83.87
2017-06-03T13:47:40.894Z,6.00
2017-06-03T13:50:15.284Z,7.43
2017-06-03T13:52:50.158Z,8.73
2017-06-03T13:55:24.720Z,10.83
2017-06-03T13:57:59.319Z,6.90
2017-06-03T14:00:33.875Z,7.50
2017-06-03T14:03:09.465Z,17.87
2017-06-03T14:05:43.953Z,5.43
2017-06-03T14:08:18.639Z,5.90
2017-06-03T14:10:53.092Z,6.55
2017-06-03T14:13:28.702Z,7.47
2017-06-03T14:16:03.305Z,6.80
2017-06-03T14:18:37.896Z,6.65
2017-06-03T14:21:12.438Z,6.03
2017-06-03T14:23:47.122Z,8.52
2017-06-03T14:26:22.501Z,8.55
2017-06-03T14:28:57.192Z,8.10
2017-06-03T14:31:31.924Z,7.82
2017-06-03T14:34:06.576Z,76.23
2017-06-03T14:36:41.115Z,32.60
2017-06-03T14:39:15.805Z,18.50
2017-06-03T14:41:51.777Z,7.57
2017-06-03T14:44:26.556Z,7.22
2017-06-03T14:47:01.039Z,6.55
2017-06-03T14:49:35.582Z,7.70
2017-06-03T14:52:10.091Z,12.50
2017-06-03T14:54:44.659Z,7.35
2017-06-03T14:57:19.343Z,9.27
2017-06-03T14:59:54.148Z,6.72
2017-06-03T15:02:28.778Z,6.75
2017-06-03T15:05:03.282Z,11.65
2017-06-03T15:07:37.800Z,12.15
2017-06-03T15:10:12.274Z,6.55
2017-06-03T15:12:46.901Z,10.68
2017-06-03T15:15:22.502Z,6.97
2017-06-03T15:17:57.091Z,7.25
2017-06-03T15:20:31.871Z,9.55
2017-06-03T15:23:06.452Z,8.25
2017-06-03T15:25:41.858Z,6.65
2017-06-03T15:28:21.846Z,8.38
2017-06-03T15:31:04.316Z,6.75
2017-06-03T15:33:44.986Z,7.03
2017-06-03T15:36:26.807Z,7.57
2017-06-03T15:39:09.744Z,7.22
2017-06-03T15:41:50.549Z,7.25
2017-06-03T15:47:32.690Z,7.43
2017-06-03T15:50:07.070Z,7.60
2017-06-03T15:52:41.829Z,7.00
2017-06-03T15:55:16.321Z,6.62
2017-06-03T15:57:50.786Z,7.53
2017-06-03T16:00:25.160Z,8.02
2017-06-03T16:02:59.696Z,8.77
2017-06-03T16:05:34.214Z,7.78
2017-06-03T16:08:08.672Z,7.55
2017-06-03T16:10:43.197Z,8.15
2017-06-03T16:13:18.477Z,8.43
2017-06-03T16:15:53.137Z,7.53
2017-06-03T16:18:27.501Z,7.43
2017-06-03T16:21:02.091Z,7.85
2017-06-03T16:23:37.393Z,6.57
2017-06-03T16:26:11.943Z,8.98
2017-06-03T16:28:46.436Z,8.02
2017-06-03T16:31:20.909Z,9.43
2017-06-03T16:33:55.273Z,9.50
2017-06-03T16:36:30.659Z,9.90
2017-06-03T16:39:05.183Z,9.65
2017-06-03T16:41:39.585Z,7.90
2017-06-03T16:44:13.967Z,9.10
2017-06-03T16:46:48.336Z,8.65
2017-06-03T16:49:22.885Z,9.18
2017-06-03T16:51:57.401Z,7.75
2017-06-03T16:54:31.869Z,7.70
2017-06-03T16:57:06.345Z,9.30
2017-06-03T16:59:40.825Z,9.40
2017-06-03T17:02:15.337Z,10.07
2017-06-03T17:04:50.650Z,10.27
2017-06-03T17:07:25.311Z,8.50
2017-06-03T17:10:00.612Z,8.43
2017-06-03T17:12:36.002Z,8.60
2017-06-03T17:15:10.504Z,9.35
2017-06-03T17:17:45.030Z,8.68
2017-06-03T17:20:20.348Z,8.85
2017-06-03T17:22:55.723Z,7.10
2017-06-03T17:25:30.232Z,8.07
2017-06-03T17:28:04.977Z,8.80
2017-06-03T17:30:39.474Z,8.55
2017-06-03T17:33:14.616Z,9.50
2017-06-03T17:35:49.137Z,10.73
2017-06-03T17:38:23.676Z,7.60
2017-06-03T17:40:58.181Z,8.52
2017-06-03T17:43:33.763Z,9.65
2017-06-03T17:46:08.696Z,8.52
2017-06-03T17:48:43.220Z,8.27
2017-06-03T17:51:17.737Z,8.63
2017-06-03T17:53:52.353Z,9.02
2017-06-03T17:56:26.753Z,9.52
2017-06-03T17:59:01.161Z,8.48
2017-06-03T18:01:35.725Z,7.53
2017-06-03T18:04:10.267Z,8.32
2017-06-03T18:06:44.653Z,8.43
2017-06-03T18:09:19.145Z,8.07
2017-06-03T18:11:53.697Z,9.35
2017-06-03T18:14:28.220Z,8.95
2017-06-03T18:17:02.633Z,9.55
2017-06-03T18:19:37.160Z,10.38
2017-06-03T18:22:17.421Z,7.95
2017-06-03T18:24:51.780Z,7.95
2017-06-03T18:27:32.276Z,10.65
2017-06-03T18:30:06.688Z,9.73
2017-06-03T18:32:41.327Z,9.32
2017-06-03T18:35:15.688Z,8.57
2017-06-03T18:37:50.180Z,9.30
2017-06-03T18:40:24.635Z,8.50
2017-06-03T18:42:59.014Z,8.80
2017-06-03T18:45:33.496Z,9.48
2017-06-03T18:48:07.830Z,9.57
2017-06-03T18:50:42.236Z,10.27
2017-06-03T18:53:16.713Z,12.02
2017-06-03T18:55:51.089Z,10.40
2017-06-03T18:58:25.461Z,11.55
2017-06-03T19:01:00.742Z,12.30
2017-06-03T19:03:35.366Z,10.10
2017-06-03T19:06:10.781Z,16.02
2017-06-03T19:08:45.449Z,11.40
2017-06-03T19:11:20.737Z,10.60
2017-06-03T19:13:55.219Z,13.02
2017-06-03T19:16:29.707Z,11.23
2017-06-03T19:19:04.865Z,11.80
2017-06-03T19:21:39.369Z,11.18
2017-06-03T19:24:13.823Z,11.02
2017-06-03T19:26:48.201Z,12.27
2017-06-03T19:29:22.649Z,13.25
2017-06-03T19:31:57.857Z,12.55
2017-06-03T19:34:32.495Z,12.68
2017-06-03T19:37:07.004Z,14.15
2017-06-03T19:39:42.292Z,12.85
2017-06-03T19:42:17.466Z,14.15
2017-06-03T19:44:51.874Z,13.68
2017-06-03T19:47:26.337Z,14.40
2017-06-03T19:50:00.850Z,13.98
2017-06-03T19:52:35.418Z,13.48
2017-06-03T19:55:09.889Z,15.32
2017-06-03T19:57:44.551Z,14.87
2017-06-03T20:00:19.013Z,14.70
2017-06-03T20:02:53.452Z,14.77
2017-06-03T20:05:27.985Z,15.23
2017-06-03T20:08:02.412Z,15.98
2017-06-03T20:10:36.785Z,14.20
2017-06-03T20:13:11.236Z,16.90
2017-06-03T20:15:45.745Z,16.77
2017-06-03T20:18:20.337Z,16.95
2017-06-03T20:20:54.730Z,15.57
2017-06-03T20:23:29.121Z,16.67
2017-06-03T20:26:03.641Z,16.50
2017-06-03T20:28:38.239Z,17.08
2017-06-03T20:31:13.504Z,16.80
2017-06-03T20:33:47.948Z,15.18
2017-06-03T20:36:22.433Z,15.35
2017-06-03T20:38:58.061Z,14.98
2017-06-03T20:41:32.597Z,15.95
2017-06-03T20:44:08.292Z,17.25
2017-06-03T20:46:42.749Z,16.83
2017-06-03T20:49:17.186Z,14.65
2017-06-03T20:51:51.589Z,16.17
2017-06-03T20:54:26.004Z,14.40
2017-06-03T20:57:00.420Z,16.23
2017-06-03T20:59:34.917Z,14.95
2017-06-03T21:02:09.280Z,15.07
2017-06-03T21:04:43.832Z,15.80
2017-06-03T21:07:19.124Z,16.27
2017-06-03T21:09:53.514Z,16.42
2017-06-03T21:12:27.968Z,16.20
2017-06-03T21:15:02.416Z,16.70
2017-06-03T21:17:36.946Z,15.60
2017-06-03T21:20:11.581Z,17.10
2017-06-03T21:22:45.945Z,16.50
2017-06-03T21:25:20.544Z,15.63
2017-06-03T21:27:55.013Z,16.08
2017-06-03T21:30:29.586Z,16.08
2017-06-03T21:33:04.873Z,16.60
2017-06-03T21:35:39.464Z,18.70
2017-06-03T21:38:14.056Z,16.27
2017-06-03T21:40:48.717Z,17.23
2017-06-03T21:43:23.157Z,17.50
2017-06-03T21:45:57.614Z,16.62
2017-06-03T21:48:31.979Z,17.62
2017-06-03T21:51:06.456Z,16.48
2017-06-03T21:53:41.060Z,17.05
2017-06-03T21:56:15.621Z,18.17
2017-06-03T21:58:50.997Z,16.27
2017-06-03T22:01:26.296Z,16.17
2017-06-03T22:04:00.784Z,15.63
2017-06-03T22:06:35.252Z,16.25
2017-06-03T22:09:09.837Z,14.80
2017-06-03T22:11:44.360Z,16.33
2017-06-03T22:14:18.885Z,15.70
2017-06-03T22:16:54.025Z,15.55
2017-06-03T22:19:28.521Z,15.20
2017-06-03T22:22:02.935Z,16.77
2017-06-03T22:24:37.468Z,15.38
2017-06-03T22:27:11.918Z,16.40
2017-06-03T22:29:47.197Z,15.75
2017-06-03T22:32:22.477Z,14.05
2017-06-03T22:34:57.088Z,15.52
2017-06-03T22:37:31.509Z,17.35
2017-06-03T22:40:06.025Z,14.75
2017-06-03T22:42:40.459Z,16.95
2017-06-03T22:45:14.885Z,17.70
2017-06-03T22:47:49.341Z,15.63
2017-06-03T22:50:23.696Z,15.27
2017-06-03T22:52:58.845Z,15.70
2017-06-03T22:55:33.194Z,17.67
2017-06-03T22:58:07.699Z,17.12
2017-06-03T23:00:42.133Z,18.73
2017-06-03T23:03:17.320Z,16.85
2017-06-03T23:05:51.970Z,17.40
2017-06-03T23:08:26.385Z,17.25
2017-06-03T23:11:00.761Z,18.48
2017-06-03T23:13:35.326Z,16.95
2017-06-03T23:16:09.765Z,18.70
2017-06-03T23:18:44.259Z,17.73
2017-06-03T23:21:18.900Z,18.90
2017-06-03T23:23:53.408Z,17.85
2017-06-03T23:26:27.789Z,18.52
2017-06-03T23:29:02.361Z,18.15
2017-06-03T23:31:36.794Z,18.75
2017-06-03T23:34:11.157Z,20.17
2017-06-03T23:36:45.725Z,18.95
2017-06-03T23:39:20.148Z,18.27
2017-06-03T23:41:54.585Z,18.33
2017-06-03T23:44:29.081Z,18.33
2017-06-03T23:47:03.555Z,18.75
2017-06-03T23:49:38.118Z,16.85
2017-06-03T23:52:13.363Z,19.15
2017-06-03T23:54:47.750Z,19.33
2017-06-03T23:57:22.210Z,19.98
2017-06-03T23:59:56.681Z,18.98
